N762EP ENGM-LOWW
Flight info
| Callsign | N762EP |
|---|---|
| Flight time | 2h 3m |
| Altitude | 31000 |
| Route | OKSAT L996 GETPA/N0483F390 L996 KELIN DCT SALLO DCT HDO DCT EVIKU DCT BITSI DCT MIKOV MIKOV8W |
| Aircraft | B77L/H-SDE1E2E3FGHIJ2J3J4J5M1RWXY/LB1D1 |
Departure
| Time | 2026-05-06 17:47 |
|---|---|
| Airport | Oslo-Gardermoen International Airport (ENGM) |
Arrival
| Time | 2026-05-06 19:51 |
|---|---|
| Airport | Vienna International Airport (LOWW) |
| Time | Latitude | Longitude | Altitude | Speed | Heading |
|---|---|---|---|---|---|
| 2026-05-06 17:22 | 60.19106 | 11.08497 | 684 ft | 0 kts | 105° |
| 2026-05-06 17:38 | 60.19109 | 11.08473 | 678 ft | 2 kts | 105° |
| 2026-05-06 17:38 | 60.19114 | 11.08441 | 679 ft | 2 kts | 105° |
| 2026-05-06 17:39 | 60.19118 | 11.08409 | 676 ft | 2 kts | 106° |
| 2026-05-06 17:39 | 60.19123 | 11.08377 | 676 ft | 2 kts | 90° |
| 2026-05-06 17:39 | 60.19120 | 11.08345 | 676 ft | 2 kts | 64° |
| 2026-05-06 17:39 | 60.19112 | 11.08316 | 676 ft | 2 kts | 52° |
| 2026-05-06 17:40 | 60.19101 | 11.08291 | 676 ft | 2 kts | 37° |
| 2026-05-06 17:40 | 60.19093 | 11.08281 | 675 ft | 1 kts | 23° |
| 2026-05-06 17:40 | 60.19092 | 11.08280 | 675 ft | 0 kts | 22° |
| 2026-05-06 17:42 | 60.19094 | 11.08282 | 675 ft | 2 kts | 21° |
| 2026-05-06 17:42 | 60.19180 | 11.08330 | 680 ft | 21 kts | 15° |
| 2026-05-06 17:43 | 60.19319 | 11.08411 | 679 ft | 21 kts | 16° |
| 2026-05-06 17:43 | 60.19458 | 11.08492 | 679 ft | 21 kts | 16° |
| 2026-05-06 17:43 | 60.19599 | 11.08575 | 677 ft | 22 kts | 15° |
| 2026-05-06 17:43 | 60.19746 | 11.08655 | 677 ft | 22 kts | 15° |
| 2026-05-06 17:44 | 60.19893 | 11.08741 | 678 ft | 22 kts | 17° |
| 2026-05-06 17:44 | 60.20059 | 11.08839 | 677 ft | 29 kts | 15° |
| 2026-05-06 17:44 | 60.20252 | 11.08948 | 679 ft | 29 kts | 15° |
| 2026-05-06 17:44 | 60.20445 | 11.09060 | 678 ft | 29 kts | 16° |
| 2026-05-06 17:45 | 60.20637 | 11.09172 | 679 ft | 29 kts | 17° |
| 2026-05-06 17:45 | 60.20831 | 11.09283 | 683 ft | 29 kts | 15° |
| 2026-05-06 17:45 | 60.21021 | 11.09393 | 682 ft | 29 kts | 16° |
| 2026-05-06 17:45 | 60.21214 | 11.09506 | 681 ft | 29 kts | 16° |
| 2026-05-06 17:46 | 60.21403 | 11.09615 | 679 ft | 18 kts | 16° |
| 2026-05-06 17:46 | 60.21512 | 11.09606 | 682 ft | 16 kts | 322° |
| 2026-05-06 17:46 | 60.21566 | 11.09389 | 682 ft | 16 kts | 285° |
| 2026-05-06 17:46 | 60.21578 | 11.09181 | 681 ft | 11 kts | 246° |
| 2026-05-06 17:47 | 60.21528 | 11.09124 | 683 ft | 7 kts | 197° |
| 2026-05-06 17:47 | 60.21364 | 11.09030 | 681 ft | 67 kts | 196° |
| 2026-05-06 17:47 | 60.20512 | 11.08535 | 684 ft | 184 kts | 198° |
| 2026-05-06 17:47 | 60.19165 | 11.07798 | 1672 ft | 199 kts | 197° |
| 2026-05-06 17:48 | 60.17889 | 11.07093 | 3396 ft | 188 kts | 200° |
| 2026-05-06 17:48 | 60.16696 | 11.05722 | 3919 ft | 212 kts | 230° |
| 2026-05-06 17:48 | 60.15917 | 11.03209 | 4796 ft | 216 kts | 245° |
| 2026-05-06 17:48 | 60.15248 | 11.00311 | 5399 ft | 240 kts | 246° |
| 2026-05-06 17:49 | 60.14353 | 10.97427 | 6232 ft | 252 kts | 224° |
| 2026-05-06 17:49 | 60.12833 | 10.95699 | 7240 ft | 262 kts | 196° |
| 2026-05-06 17:49 | 60.10979 | 10.95626 | 8354 ft | 270 kts | 168° |
| 2026-05-06 17:49 | 60.09218 | 10.96930 | 9451 ft | 277 kts | 157° |
| 2026-05-06 17:50 | 60.07463 | 10.98630 | 10451 ft | 285 kts | 156° |
| 2026-05-06 17:50 | 60.05630 | 11.00521 | 10978 ft | 311 kts | 155° |
| 2026-05-06 17:50 | 60.03615 | 11.02669 | 11242 ft | 344 kts | 153° |
| 2026-05-06 17:50 | 60.01493 | 11.05319 | 11697 ft | 370 kts | 149° |
| 2026-05-06 17:51 | 59.99332 | 11.08273 | 12575 ft | 383 kts | 149° |
| 2026-05-06 17:51 | 59.97125 | 11.11341 | 13611 ft | 391 kts | 149° |
| 2026-05-06 17:51 | 59.94863 | 11.14471 | 14543 ft | 397 kts | 150° |
| 2026-05-06 17:51 | 59.92569 | 11.17612 | 15547 ft | 401 kts | 151° |
| 2026-05-06 17:52 | 59.90235 | 11.20700 | 16517 ft | 405 kts | 155° |
| 2026-05-06 17:52 | 59.87720 | 11.23240 | 17465 ft | 405 kts | 163° |
| 2026-05-06 17:52 | 59.85106 | 11.25086 | 18371 ft | 404 kts | 171° |
| 2026-05-06 17:52 | 59.82368 | 11.26492 | 19175 ft | 408 kts | 172° |
| 2026-05-06 17:53 | 59.79608 | 11.27890 | 19997 ft | 412 kts | 172° |
| 2026-05-06 17:53 | 59.76812 | 11.29316 | 20789 ft | 417 kts | 172° |
| 2026-05-06 17:53 | 59.73978 | 11.30772 | 21587 ft | 422 kts | 172° |
| 2026-05-06 17:53 | 59.71116 | 11.32248 | 22351 ft | 427 kts | 172° |
| 2026-05-06 17:54 | 59.68224 | 11.33743 | 23153 ft | 432 kts | 172° |
| 2026-05-06 17:54 | 59.65301 | 11.35258 | 23862 ft | 436 kts | 173° |
| 2026-05-06 17:54 | 59.62353 | 11.36787 | 24534 ft | 439 kts | 173° |
| 2026-05-06 17:54 | 59.59396 | 11.38319 | 25244 ft | 441 kts | 173° |
| 2026-05-06 17:55 | 59.56423 | 11.39859 | 25947 ft | 443 kts | 173° |
| 2026-05-06 17:55 | 59.53426 | 11.41407 | 26601 ft | 446 kts | 173° |
| 2026-05-06 17:55 | 59.50418 | 11.42957 | 27219 ft | 449 kts | 173° |
| 2026-05-06 17:55 | 59.47381 | 11.44518 | 27859 ft | 452 kts | 173° |
| 2026-05-06 17:56 | 59.44329 | 11.46084 | 28536 ft | 453 kts | 173° |
| 2026-05-06 17:56 | 59.41296 | 11.47643 | 29448 ft | 449 kts | 174° |
| 2026-05-06 17:56 | 59.38293 | 11.49188 | 30394 ft | 443 kts | 174° |
| 2026-05-06 17:56 | 59.35301 | 11.50719 | 30910 ft | 446 kts | 174° |
| 2026-05-06 17:57 | 59.29269 | 11.53779 | 30926 ft | 446 kts | 174° |
| 2026-05-06 17:57 | 59.23271 | 11.56824 | 30927 ft | 444 kts | 174° |
| 2026-05-06 17:58 | 59.17325 | 11.59825 | 30945 ft | 444 kts | 174° |
| 2026-05-06 17:58 | 59.11333 | 11.62838 | 30933 ft | 445 kts | 174° |
| 2026-05-06 17:59 | 59.05336 | 11.65844 | 30933 ft | 445 kts | 174° |
| 2026-05-06 17:59 | 58.99339 | 11.68841 | 30943 ft | 445 kts | 173° |
| 2026-05-06 18:00 | 58.93340 | 11.71826 | 30945 ft | 445 kts | 173° |
| 2026-05-06 18:00 | 58.87347 | 11.74799 | 30942 ft | 445 kts | 173° |
| 2026-05-06 18:01 | 58.81347 | 11.77765 | 30936 ft | 444 kts | 173° |
| 2026-05-06 18:01 | 58.75354 | 11.80717 | 30938 ft | 445 kts | 173° |
| 2026-05-06 18:02 | 58.72325 | 11.82189 | 31040 ft | 454 kts | 173° |
| 2026-05-06 18:02 | 58.69246 | 11.83678 | 31366 ft | 458 kts | 173° |
| 2026-05-06 18:02 | 58.66152 | 11.85183 | 31869 ft | 458 kts | 173° |
| 2026-05-06 18:02 | 58.63069 | 11.86691 | 32439 ft | 457 kts | 173° |
| 2026-05-06 18:03 | 58.59989 | 11.88199 | 33005 ft | 455 kts | 173° |
| 2026-05-06 18:03 | 58.56926 | 11.89696 | 33578 ft | 454 kts | 173° |
| 2026-05-06 18:03 | 58.53871 | 11.91187 | 34073 ft | 453 kts | 173° |
| 2026-05-06 18:03 | 58.50814 | 11.92672 | 34406 ft | 455 kts | 173° |
| 2026-05-06 18:04 | 58.47738 | 11.94162 | 34686 ft | 457 kts | 172° |
| 2026-05-06 18:04 | 58.44636 | 11.95661 | 35004 ft | 459 kts | 172° |
| 2026-05-06 18:04 | 58.41576 | 11.97140 | 35325 ft | 460 kts | 172° |
| 2026-05-06 18:04 | 58.38467 | 11.98640 | 35631 ft | 462 kts | 172° |
| 2026-05-06 18:05 | 58.35307 | 12.00163 | 35955 ft | 463 kts | 172° |
| 2026-05-06 18:05 | 58.32219 | 12.01649 | 36268 ft | 464 kts | 172° |
| 2026-05-06 18:05 | 58.29079 | 12.03158 | 36569 ft | 465 kts | 171° |
| 2026-05-06 18:05 | 58.25938 | 12.04663 | 36879 ft | 466 kts | 171° |
| 2026-05-06 18:06 | 58.22786 | 12.06153 | 37177 ft | 467 kts | 172° |
| 2026-05-06 18:06 | 58.19622 | 12.07571 | 37477 ft | 468 kts | 172° |
| 2026-05-06 18:06 | 58.16447 | 12.08948 | 37796 ft | 468 kts | 172° |
| 2026-05-06 18:06 | 58.13264 | 12.10312 | 38088 ft | 469 kts | 172° |
| 2026-05-06 18:07 | 58.10076 | 12.11676 | 38363 ft | 470 kts | 172° |
| 2026-05-06 18:07 | 58.06875 | 12.13049 | 38645 ft | 471 kts | 172° |
| 2026-05-06 18:07 | 58.03676 | 12.14426 | 38830 ft | 472 kts | 172° |
| 2026-05-06 18:07 | 58.00461 | 12.15811 | 38870 ft | 475 kts | 172° |
| 2026-05-06 18:08 | 57.94031 | 12.18587 | 38926 ft | 473 kts | 172° |
| 2026-05-06 18:08 | 57.87637 | 12.21344 | 38930 ft | 470 kts | 172° |
| 2026-05-06 18:09 | 57.81255 | 12.24080 | 38933 ft | 469 kts | 172° |
| 2026-05-06 18:09 | 57.74895 | 12.26795 | 38933 ft | 468 kts | 172° |
| 2026-05-06 18:10 | 57.68534 | 12.29499 | 38937 ft | 468 kts | 172° |
| 2026-05-06 18:10 | 57.62187 | 12.32189 | 38933 ft | 468 kts | 172° |
| 2026-05-06 18:11 | 57.56893 | 12.34425 | 38936 ft | 469 kts | 172° |
| 2026-05-06 18:11 | 57.49489 | 12.37541 | 38933 ft | 470 kts | 172° |
| 2026-05-06 18:12 | 57.43114 | 12.40214 | 38935 ft | 470 kts | 172° |
| 2026-05-06 18:12 | 57.36722 | 12.42886 | 38942 ft | 471 kts | 172° |
| 2026-05-06 18:13 | 57.30329 | 12.45548 | 38940 ft | 471 kts | 172° |
| 2026-05-06 18:13 | 57.23919 | 12.48207 | 38941 ft | 471 kts | 172° |
| 2026-05-06 18:14 | 57.17521 | 12.50854 | 38930 ft | 471 kts | 172° |
| 2026-05-06 18:14 | 57.11117 | 12.53491 | 38939 ft | 471 kts | 172° |
| 2026-05-06 18:15 | 57.04716 | 12.56118 | 38944 ft | 471 kts | 172° |
| 2026-05-06 18:15 | 56.98309 | 12.58738 | 38933 ft | 471 kts | 172° |
| 2026-05-06 18:16 | 56.91918 | 12.61344 | 38942 ft | 471 kts | 172° |
| 2026-05-06 18:16 | 56.85513 | 12.63945 | 38943 ft | 471 kts | 172° |
| 2026-05-06 18:17 | 56.79115 | 12.66534 | 38940 ft | 471 kts | 172° |
| 2026-05-06 18:17 | 56.72721 | 12.69113 | 38936 ft | 471 kts | 172° |
| 2026-05-06 18:18 | 56.66322 | 12.71685 | 38939 ft | 470 kts | 172° |
| 2026-05-06 18:18 | 56.59972 | 12.74229 | 38937 ft | 470 kts | 172° |
| 2026-05-06 18:19 | 56.53573 | 12.76783 | 38945 ft | 470 kts | 172° |
| 2026-05-06 18:19 | 56.47181 | 12.79325 | 38944 ft | 470 kts | 172° |
| 2026-05-06 18:20 | 56.40788 | 12.81860 | 38942 ft | 470 kts | 172° |
| 2026-05-06 18:20 | 56.35472 | 12.83961 | 38941 ft | 470 kts | 172° |
| 2026-05-06 18:21 | 56.29072 | 12.86481 | 38933 ft | 470 kts | 172° |
| 2026-05-06 18:21 | 56.22680 | 12.88991 | 38937 ft | 470 kts | 172° |
| 2026-05-06 18:22 | 56.16289 | 12.91491 | 38944 ft | 470 kts | 172° |
| 2026-05-06 18:22 | 56.09894 | 12.93985 | 38963 ft | 470 kts | 172° |
| 2026-05-06 18:23 | 56.03497 | 12.96470 | 38971 ft | 470 kts | 172° |
| 2026-05-06 18:23 | 55.97107 | 12.98945 | 38967 ft | 470 kts | 172° |
| 2026-05-06 18:24 | 55.90718 | 13.01411 | 38971 ft | 470 kts | 172° |
| 2026-05-06 18:24 | 55.84331 | 13.03868 | 38970 ft | 469 kts | 172° |
| 2026-05-06 18:25 | 55.77947 | 13.06315 | 38967 ft | 469 kts | 172° |
| 2026-05-06 18:25 | 55.71599 | 13.08741 | 38974 ft | 469 kts | 172° |
| 2026-05-06 18:26 | 55.65217 | 13.11171 | 38967 ft | 469 kts | 172° |
| 2026-05-06 18:26 | 55.58843 | 13.13590 | 38967 ft | 468 kts | 172° |
| 2026-05-06 18:27 | 55.52473 | 13.16000 | 38967 ft | 468 kts | 172° |
| 2026-05-06 18:27 | 55.46109 | 13.18400 | 38965 ft | 468 kts | 172° |
| 2026-05-06 18:28 | 55.39745 | 13.20792 | 38965 ft | 468 kts | 172° |
| 2026-05-06 18:28 | 55.33370 | 13.23180 | 38964 ft | 468 kts | 172° |
| 2026-05-06 18:29 | 55.27000 | 13.25558 | 38964 ft | 468 kts | 172° |
| 2026-05-06 18:29 | 55.20637 | 13.27925 | 38958 ft | 468 kts | 172° |
| 2026-05-06 18:30 | 55.14301 | 13.30276 | 38957 ft | 468 kts | 172° |
| 2026-05-06 18:30 | 55.07930 | 13.32631 | 38956 ft | 468 kts | 172° |
| 2026-05-06 18:31 | 55.01564 | 13.34978 | 38952 ft | 468 kts | 172° |
| 2026-05-06 18:31 | 54.95194 | 13.37319 | 38950 ft | 468 kts | 172° |
| 2026-05-06 18:32 | 54.88817 | 13.39456 | 38956 ft | 466 kts | 174° |
| 2026-05-06 18:32 | 54.82405 | 13.41177 | 38944 ft | 466 kts | 175° |
| 2026-05-06 18:33 | 54.75997 | 13.42853 | 38947 ft | 466 kts | 175° |
| 2026-05-06 18:33 | 54.69591 | 13.44548 | 38940 ft | 465 kts | 175° |
| 2026-05-06 18:34 | 54.63184 | 13.46257 | 38936 ft | 465 kts | 175° |
| 2026-05-06 18:34 | 54.56790 | 13.47962 | 38935 ft | 465 kts | 175° |
| 2026-05-06 18:35 | 54.50388 | 13.49665 | 38931 ft | 465 kts | 175° |
| 2026-05-06 18:35 | 54.44036 | 13.51347 | 38927 ft | 465 kts | 175° |
| 2026-05-06 18:36 | 54.37635 | 13.53037 | 38925 ft | 465 kts | 175° |
| 2026-05-06 18:36 | 54.31238 | 13.54719 | 38923 ft | 465 kts | 175° |
| 2026-05-06 18:37 | 54.24840 | 13.56398 | 38918 ft | 465 kts | 175° |
| 2026-05-06 18:37 | 54.18443 | 13.58071 | 38912 ft | 465 kts | 175° |
| 2026-05-06 18:38 | 54.12046 | 13.59739 | 38918 ft | 465 kts | 175° |
| 2026-05-06 18:38 | 54.05651 | 13.61400 | 38904 ft | 465 kts | 175° |
| 2026-05-06 18:39 | 53.99291 | 13.63048 | 38904 ft | 465 kts | 175° |
| 2026-05-06 18:40 | 53.89691 | 13.65525 | 38896 ft | 465 kts | 175° |
| 2026-05-06 18:40 | 53.83294 | 13.67170 | 38892 ft | 465 kts | 175° |
| 2026-05-06 18:41 | 53.76901 | 13.68808 | 38890 ft | 464 kts | 175° |
| 2026-05-06 18:41 | 53.70506 | 13.70442 | 38890 ft | 464 kts | 175° |
| 2026-05-06 18:42 | 53.64124 | 13.72067 | 38887 ft | 464 kts | 175° |
| 2026-05-06 18:42 | 53.57748 | 13.73686 | 38884 ft | 463 kts | 175° |
| 2026-05-06 18:43 | 53.51369 | 13.75301 | 38883 ft | 463 kts | 175° |
| 2026-05-06 18:43 | 53.45008 | 13.76907 | 38874 ft | 462 kts | 175° |
| 2026-05-06 18:44 | 53.38639 | 13.78509 | 38873 ft | 462 kts | 175° |
| 2026-05-06 18:44 | 53.32287 | 13.80103 | 38868 ft | 461 kts | 175° |
| 2026-05-06 18:45 | 53.25939 | 13.81690 | 38865 ft | 461 kts | 175° |
| 2026-05-06 18:45 | 53.19596 | 13.83272 | 38866 ft | 460 kts | 175° |
| 2026-05-06 18:46 | 53.13269 | 13.84845 | 38856 ft | 459 kts | 175° |
| 2026-05-06 18:46 | 53.06943 | 13.86413 | 38858 ft | 459 kts | 175° |
| 2026-05-06 18:47 | 53.00667 | 13.87964 | 38851 ft | 458 kts | 175° |
| 2026-05-06 18:47 | 52.94353 | 13.89519 | 38849 ft | 458 kts | 175° |
| 2026-05-06 18:48 | 52.88050 | 13.91068 | 38847 ft | 458 kts | 175° |
| 2026-05-06 18:48 | 52.81738 | 13.92614 | 38840 ft | 458 kts | 175° |
| 2026-05-06 18:49 | 52.75426 | 13.94155 | 38844 ft | 459 kts | 175° |
| 2026-05-06 18:49 | 52.69110 | 13.95693 | 38847 ft | 459 kts | 175° |
| 2026-05-06 18:50 | 52.62780 | 13.97229 | 38832 ft | 460 kts | 175° |
| 2026-05-06 18:50 | 52.56445 | 13.98763 | 38837 ft | 460 kts | 175° |
| 2026-05-06 18:51 | 52.50096 | 14.00296 | 38834 ft | 461 kts | 175° |
| 2026-05-06 18:51 | 52.43748 | 14.01824 | 38831 ft | 461 kts | 175° |
| 2026-05-06 18:52 | 52.37396 | 14.03349 | 38829 ft | 461 kts | 175° |
| 2026-05-06 18:52 | 52.31052 | 14.04867 | 38824 ft | 461 kts | 175° |
| 2026-05-06 18:53 | 52.24711 | 14.06380 | 38817 ft | 460 kts | 175° |
| 2026-05-06 18:53 | 52.18369 | 14.07889 | 38815 ft | 460 kts | 175° |
| 2026-05-06 18:54 | 52.12042 | 14.09390 | 38820 ft | 459 kts | 175° |
| 2026-05-06 18:54 | 52.05718 | 14.10886 | 38817 ft | 458 kts | 175° |
| 2026-05-06 18:55 | 51.99403 | 14.12375 | 38816 ft | 458 kts | 175° |
| 2026-05-06 18:55 | 51.93104 | 14.13857 | 38809 ft | 457 kts | 175° |
| 2026-05-06 18:56 | 51.86814 | 14.15332 | 38811 ft | 457 kts | 175° |
| 2026-05-06 18:56 | 51.80527 | 14.16803 | 38814 ft | 456 kts | 175° |
| 2026-05-06 18:57 | 51.74237 | 14.18270 | 38806 ft | 456 kts | 175° |
| 2026-05-06 18:57 | 51.67951 | 14.19732 | 38808 ft | 456 kts | 175° |
| 2026-05-06 18:58 | 51.61669 | 14.21189 | 38801 ft | 456 kts | 175° |
| 2026-05-06 18:58 | 51.55401 | 14.22638 | 38801 ft | 455 kts | 175° |
| 2026-05-06 18:59 | 51.49169 | 14.24075 | 38797 ft | 455 kts | 176° |
| 2026-05-06 18:59 | 51.42900 | 14.25518 | 38791 ft | 454 kts | 176° |
| 2026-05-06 19:00 | 51.36638 | 14.26954 | 38793 ft | 453 kts | 176° |
| 2026-05-06 19:00 | 51.30448 | 14.28373 | 38533 ft | 447 kts | 176° |
| 2026-05-06 19:00 | 51.28406 | 14.28839 | 38333 ft | 447 kts | 176° |
| 2026-05-06 19:01 | 51.24287 | 14.29777 | 37865 ft | 446 kts | 176° |
| 2026-05-06 19:01 | 51.21215 | 14.30475 | 37514 ft | 446 kts | 176° |
| 2026-05-06 19:01 | 51.18146 | 14.31172 | 37151 ft | 445 kts | 176° |
| 2026-05-06 19:01 | 51.15079 | 14.31868 | 36766 ft | 445 kts | 176° |
| 2026-05-06 19:02 | 51.13054 | 14.32327 | 36493 ft | 445 kts | 176° |
| 2026-05-06 19:02 | 51.08991 | 14.33248 | 35967 ft | 445 kts | 176° |
| 2026-05-06 19:02 | 51.06922 | 14.33716 | 35678 ft | 445 kts | 176° |
| 2026-05-06 19:02 | 51.03860 | 14.34408 | 35218 ft | 446 kts | 176° |
| 2026-05-06 19:03 | 50.99776 | 14.35328 | 34841 ft | 449 kts | 176° |
| 2026-05-06 19:03 | 50.94585 | 14.36497 | 34776 ft | 449 kts | 176° |
| 2026-05-06 19:04 | 50.88445 | 14.38446 | 34784 ft | 451 kts | 171° |
| 2026-05-06 19:04 | 50.82329 | 14.40760 | 34772 ft | 453 kts | 171° |
| 2026-05-06 19:05 | 50.76196 | 14.43052 | 34768 ft | 453 kts | 172° |
| 2026-05-06 19:05 | 50.70050 | 14.45323 | 34770 ft | 453 kts | 172° |
| 2026-05-06 19:06 | 50.63905 | 14.47582 | 34775 ft | 453 kts | 172° |
| 2026-05-06 19:06 | 50.57769 | 14.49834 | 34766 ft | 452 kts | 172° |
| 2026-05-06 19:07 | 50.51643 | 14.52076 | 34768 ft | 451 kts | 171° |
| 2026-05-06 19:07 | 50.45802 | 14.55775 | 34770 ft | 463 kts | 155° |
| 2026-05-06 19:08 | 50.40660 | 14.62019 | 34765 ft | 472 kts | 142° |
| 2026-05-06 19:08 | 50.35961 | 14.69255 | 34750 ft | 473 kts | 141° |
| 2026-05-06 19:09 | 50.31271 | 14.76498 | 34748 ft | 473 kts | 141° |
| 2026-05-06 19:09 | 50.26555 | 14.83659 | 34750 ft | 473 kts | 142° |
| 2026-05-06 19:10 | 50.21815 | 14.90780 | 34756 ft | 473 kts | 142° |
| 2026-05-06 19:10 | 50.17053 | 14.97904 | 34769 ft | 474 kts | 142° |
| 2026-05-06 19:11 | 50.12292 | 15.05008 | 34759 ft | 474 kts | 142° |
| 2026-05-06 19:11 | 50.07518 | 15.12115 | 34757 ft | 475 kts | 142° |
| 2026-05-06 19:12 | 50.02733 | 15.19219 | 34751 ft | 475 kts | 142° |
| 2026-05-06 19:12 | 49.97946 | 15.26305 | 34750 ft | 475 kts | 142° |
| 2026-05-06 19:13 | 49.93159 | 15.33372 | 34737 ft | 472 kts | 143° |
| 2026-05-06 19:13 | 49.88496 | 15.40249 | 34525 ft | 460 kts | 143° |
| 2026-05-06 19:13 | 49.86178 | 15.43655 | 34305 ft | 458 kts | 143° |
| 2026-05-06 19:14 | 49.83866 | 15.47042 | 33993 ft | 457 kts | 144° |
| 2026-05-06 19:14 | 49.81523 | 15.50468 | 33634 ft | 458 kts | 144° |
| 2026-05-06 19:14 | 49.79238 | 15.53805 | 33224 ft | 458 kts | 144° |
| 2026-05-06 19:14 | 49.76912 | 15.57196 | 32756 ft | 459 kts | 144° |
| 2026-05-06 19:15 | 49.74583 | 15.60588 | 32272 ft | 461 kts | 144° |
| 2026-05-06 19:15 | 49.72247 | 15.63989 | 31764 ft | 463 kts | 144° |
| 2026-05-06 19:15 | 49.69898 | 15.67404 | 31269 ft | 464 kts | 143° |
| 2026-05-06 19:15 | 49.67538 | 15.70831 | 30860 ft | 466 kts | 143° |
| 2026-05-06 19:16 | 49.65156 | 15.74285 | 30755 ft | 468 kts | 143° |
| 2026-05-06 19:16 | 49.60437 | 15.81125 | 30738 ft | 466 kts | 143° |
| 2026-05-06 19:17 | 49.55738 | 15.87917 | 30659 ft | 452 kts | 143° |
| 2026-05-06 19:17 | 49.53490 | 15.91171 | 30327 ft | 433 kts | 144° |
| 2026-05-06 19:17 | 49.51290 | 15.94341 | 29634 ft | 433 kts | 144° |
| 2026-05-06 19:17 | 49.49088 | 15.97495 | 28982 ft | 431 kts | 144° |
| 2026-05-06 19:18 | 49.46906 | 16.00620 | 28487 ft | 425 kts | 143° |
| 2026-05-06 19:18 | 49.44916 | 16.03896 | 27965 ft | 428 kts | 134° |
| 2026-05-06 19:18 | 49.43238 | 16.07684 | 27422 ft | 429 kts | 128° |
| 2026-05-06 19:18 | 49.41726 | 16.11624 | 26909 ft | 427 kts | 126° |
| 2026-05-06 19:19 | 49.40267 | 16.15584 | 26386 ft | 424 kts | 126° |
| 2026-05-06 19:19 | 49.38831 | 16.19515 | 25903 ft | 421 kts | 125° |
| 2026-05-06 19:19 | 49.37408 | 16.23422 | 25427 ft | 417 kts | 125° |
| 2026-05-06 19:19 | 49.36001 | 16.27287 | 24957 ft | 413 kts | 125° |
| 2026-05-06 19:20 | 49.34602 | 16.31120 | 24497 ft | 410 kts | 125° |
| 2026-05-06 19:20 | 49.33211 | 16.34920 | 24045 ft | 406 kts | 125° |
| 2026-05-06 19:20 | 49.31828 | 16.38687 | 23577 ft | 403 kts | 125° |
| 2026-05-06 19:20 | 49.30454 | 16.42419 | 23108 ft | 401 kts | 125° |
| 2026-05-06 19:21 | 49.29084 | 16.46125 | 22596 ft | 397 kts | 125° |
| 2026-05-06 19:21 | 49.27723 | 16.49793 | 22074 ft | 395 kts | 125° |
| 2026-05-06 19:21 | 49.26368 | 16.53422 | 21594 ft | 392 kts | 125° |
| 2026-05-06 19:21 | 49.25015 | 16.57029 | 21145 ft | 389 kts | 125° |
| 2026-05-06 19:22 | 49.23672 | 16.60600 | 20697 ft | 386 kts | 125° |
| 2026-05-06 19:22 | 49.22336 | 16.64138 | 20261 ft | 382 kts | 126° |
| 2026-05-06 19:22 | 49.20757 | 16.67266 | 19637 ft | 368 kts | 146° |
| 2026-05-06 19:22 | 49.18580 | 16.69005 | 19085 ft | 346 kts | 171° |
| 2026-05-06 19:23 | 49.16234 | 16.69324 | 18554 ft | 337 kts | 185° |
| 2026-05-06 19:23 | 49.13912 | 16.69010 | 18253 ft | 331 kts | 190° |
| 2026-05-06 19:23 | 49.11661 | 16.68532 | 17941 ft | 327 kts | 191° |
| 2026-05-06 19:23 | 49.09409 | 16.68026 | 17513 ft | 325 kts | 191° |
| 2026-05-06 19:24 | 49.07172 | 16.67540 | 17064 ft | 324 kts | 190° |
| 2026-05-06 19:24 | 49.04940 | 16.67076 | 16631 ft | 323 kts | 190° |
| 2026-05-06 19:24 | 49.02718 | 16.66631 | 16227 ft | 322 kts | 189° |
| 2026-05-06 19:24 | 49.00504 | 16.66202 | 15880 ft | 319 kts | 189° |
| 2026-05-06 19:25 | 48.98306 | 16.65784 | 15499 ft | 318 kts | 189° |
| 2026-05-06 19:25 | 48.96106 | 16.65370 | 15112 ft | 317 kts | 189° |
| 2026-05-06 19:25 | 48.93932 | 16.64963 | 14738 ft | 315 kts | 189° |
| 2026-05-06 19:25 | 48.91760 | 16.64559 | 14391 ft | 314 kts | 188° |
| 2026-05-06 19:26 | 48.89595 | 16.64157 | 14027 ft | 313 kts | 188° |
| 2026-05-06 19:26 | 48.87430 | 16.63755 | 13665 ft | 312 kts | 188° |
| 2026-05-06 19:26 | 48.85277 | 16.63356 | 13317 ft | 310 kts | 188° |
| 2026-05-06 19:26 | 48.83136 | 16.62961 | 12943 ft | 309 kts | 188° |
| 2026-05-06 19:27 | 48.81031 | 16.62570 | 12579 ft | 308 kts | 188° |
| 2026-05-06 19:27 | 48.78915 | 16.62202 | 12210 ft | 303 kts | 185° |
| 2026-05-06 19:27 | 48.76839 | 16.62513 | 11843 ft | 299 kts | 169° |
| 2026-05-06 19:27 | 48.74805 | 16.63239 | 11774 ft | 302 kts | 169° |
| 2026-05-06 19:28 | 48.72736 | 16.63954 | 11759 ft | 307 kts | 170° |
| 2026-05-06 19:28 | 48.70645 | 16.64661 | 11753 ft | 309 kts | 170° |
| 2026-05-06 19:28 | 48.68553 | 16.65360 | 11747 ft | 308 kts | 170° |
| 2026-05-06 19:28 | 48.66459 | 16.66055 | 11744 ft | 307 kts | 170° |
| 2026-05-06 19:29 | 48.64380 | 16.66741 | 11745 ft | 306 kts | 170° |
| 2026-05-06 19:29 | 48.62302 | 16.67423 | 11744 ft | 305 kts | 170° |
| 2026-05-06 19:29 | 48.60233 | 16.68100 | 11748 ft | 304 kts | 171° |
| 2026-05-06 19:29 | 48.58169 | 16.68775 | 11757 ft | 304 kts | 171° |
| 2026-05-06 19:30 | 48.56107 | 16.69481 | 11750 ft | 304 kts | 169° |
| 2026-05-06 19:30 | 48.54048 | 16.70241 | 11754 ft | 304 kts | 169° |
| 2026-05-06 19:30 | 48.51987 | 16.71007 | 11745 ft | 305 kts | 169° |
| 2026-05-06 19:30 | 48.49930 | 16.71766 | 11756 ft | 304 kts | 169° |
| 2026-05-06 19:31 | 48.47868 | 16.72521 | 11748 ft | 304 kts | 169° |
| 2026-05-06 19:31 | 48.45803 | 16.73276 | 11747 ft | 304 kts | 169° |
| 2026-05-06 19:31 | 48.41701 | 16.74770 | 11239 ft | 301 kts | 169° |
| 2026-05-06 19:32 | 48.39672 | 16.75508 | 10797 ft | 300 kts | 169° |
| 2026-05-06 19:32 | 48.37638 | 16.76246 | 10288 ft | 300 kts | 169° |
| 2026-05-06 19:32 | 48.35609 | 16.76983 | 9826 ft | 300 kts | 169° |
| 2026-05-06 19:32 | 48.33585 | 16.77718 | 9384 ft | 298 kts | 169° |
| 2026-05-06 19:33 | 48.31610 | 16.78434 | 8946 ft | 295 kts | 169° |
| 2026-05-06 19:33 | 48.29623 | 16.79151 | 8504 ft | 291 kts | 170° |
| 2026-05-06 19:33 | 48.27662 | 16.79758 | 7918 ft | 284 kts | 178° |
| 2026-05-06 19:33 | 48.25731 | 16.79346 | 7403 ft | 281 kts | 205° |
| 2026-05-06 19:34 | 48.24172 | 16.77621 | 7227 ft | 283 kts | 230° |
| 2026-05-06 19:34 | 48.23286 | 16.74993 | 7047 ft | 286 kts | 255° |
| 2026-05-06 19:34 | 48.23282 | 16.72025 | 7006 ft | 290 kts | 280° |
| 2026-05-06 19:34 | 48.24167 | 16.69281 | 6996 ft | 299 kts | 305° |
| 2026-05-06 19:35 | 48.25791 | 16.67294 | 6994 ft | 308 kts | 330° |
| 2026-05-06 19:35 | 48.27833 | 16.66240 | 7003 ft | 313 kts | 342° |
| 2026-05-06 19:35 | 48.29945 | 16.65509 | 6927 ft | 304 kts | 344° |
| 2026-05-06 19:35 | 48.31969 | 16.64878 | 6582 ft | 290 kts | 345° |
| 2026-05-06 19:36 | 48.33965 | 16.64261 | 6365 ft | 292 kts | 345° |
| 2026-05-06 19:36 | 48.35934 | 16.63657 | 6241 ft | 284 kts | 345° |
| 2026-05-06 19:36 | 48.37854 | 16.63073 | 5976 ft | 276 kts | 345° |
| 2026-05-06 19:36 | 48.39688 | 16.62531 | 5975 ft | 263 kts | 345° |
| 2026-05-06 19:37 | 48.41443 | 16.62026 | 5977 ft | 253 kts | 345° |
| 2026-05-06 19:37 | 48.43170 | 16.61536 | 6013 ft | 253 kts | 345° |
| 2026-05-06 19:37 | 48.44903 | 16.61040 | 5978 ft | 254 kts | 345° |
| 2026-05-06 19:37 | 48.46050 | 16.60708 | 5971 ft | 253 kts | 345° |
| 2026-05-06 19:38 | 48.48361 | 16.60040 | 5976 ft | 251 kts | 345° |
| 2026-05-06 19:38 | 48.50030 | 16.59559 | 5961 ft | 239 kts | 345° |
| 2026-05-06 19:38 | 48.51647 | 16.59090 | 5980 ft | 234 kts | 345° |
| 2026-05-06 19:38 | 48.53237 | 16.58635 | 5853 ft | 232 kts | 345° |
| 2026-05-06 19:39 | 48.54802 | 16.58190 | 5605 ft | 232 kts | 345° |
| 2026-05-06 19:39 | 48.56377 | 16.57741 | 5437 ft | 228 kts | 346° |
| 2026-05-06 19:39 | 48.57928 | 16.57222 | 5160 ft | 226 kts | 335° |
| 2026-05-06 19:39 | 48.59132 | 16.55842 | 4991 ft | 212 kts | 299° |
| 2026-05-06 19:40 | 48.59541 | 16.53807 | 4970 ft | 199 kts | 265° |
| 2026-05-06 19:40 | 48.59147 | 16.51868 | 4967 ft | 195 kts | 234° |
| 2026-05-06 19:40 | 48.58264 | 16.50324 | 4970 ft | 195 kts | 226° |
| 2026-05-06 19:40 | 48.57311 | 16.48861 | 4967 ft | 196 kts | 225° |
| 2026-05-06 19:41 | 48.56261 | 16.47595 | 4954 ft | 195 kts | 204° |
| 2026-05-06 19:41 | 48.54916 | 16.47187 | 4988 ft | 202 kts | 190° |
| 2026-05-06 19:41 | 48.53495 | 16.46920 | 4987 ft | 209 kts | 190° |
| 2026-05-06 19:41 | 48.52063 | 16.46650 | 4967 ft | 203 kts | 190° |
| 2026-05-06 19:42 | 48.50702 | 16.46400 | 4955 ft | 191 kts | 190° |
| 2026-05-06 19:42 | 48.49404 | 16.46171 | 4962 ft | 187 kts | 190° |
| 2026-05-06 19:42 | 48.48112 | 16.45949 | 4967 ft | 187 kts | 190° |
| 2026-05-06 19:42 | 48.46824 | 16.45725 | 4959 ft | 186 kts | 190° |
| 2026-05-06 19:43 | 48.45555 | 16.45500 | 4977 ft | 186 kts | 190° |
| 2026-05-06 19:43 | 48.44268 | 16.45275 | 4973 ft | 186 kts | 190° |
| 2026-05-06 19:43 | 48.42981 | 16.45068 | 4975 ft | 185 kts | 187° |
| 2026-05-06 19:43 | 48.41695 | 16.45274 | 4984 ft | 188 kts | 173° |
| 2026-05-06 19:44 | 48.40417 | 16.45735 | 4984 ft | 190 kts | 170° |
| 2026-05-06 19:44 | 48.39135 | 16.46253 | 4993 ft | 191 kts | 170° |
| 2026-05-06 19:44 | 48.37845 | 16.46795 | 4981 ft | 193 kts | 169° |
| 2026-05-06 19:44 | 48.36550 | 16.47348 | 4994 ft | 193 kts | 169° |
| 2026-05-06 19:45 | 48.35695 | 16.47714 | 4989 ft | 193 kts | 169° |
| 2026-05-06 19:45 | 48.34405 | 16.48266 | 4983 ft | 192 kts | 169° |
| 2026-05-06 19:45 | 48.33109 | 16.48819 | 4828 ft | 196 kts | 169° |
| 2026-05-06 19:45 | 48.31806 | 16.49377 | 4577 ft | 193 kts | 169° |
| 2026-05-06 19:46 | 48.30537 | 16.49921 | 4320 ft | 186 kts | 169° |
| 2026-05-06 19:46 | 48.29306 | 16.50447 | 4085 ft | 182 kts | 169° |
| 2026-05-06 19:46 | 48.28099 | 16.50962 | 3843 ft | 179 kts | 169° |
| 2026-05-06 19:46 | 48.26903 | 16.51471 | 3618 ft | 179 kts | 170° |
| 2026-05-06 19:47 | 48.25710 | 16.51979 | 3393 ft | 177 kts | 169° |
| 2026-05-06 19:47 | 48.24541 | 16.52478 | 3181 ft | 173 kts | 169° |
| 2026-05-06 19:47 | 48.23394 | 16.52968 | 2944 ft | 171 kts | 169° |
| 2026-05-06 19:47 | 48.22258 | 16.53451 | 2716 ft | 168 kts | 169° |
| 2026-05-06 19:48 | 48.21143 | 16.53926 | 2498 ft | 163 kts | 169° |
| 2026-05-06 19:48 | 48.20102 | 16.54371 | 2272 ft | 147 kts | 169° |
| 2026-05-06 19:48 | 48.19157 | 16.54771 | 2110 ft | 139 kts | 169° |
| 2026-05-06 19:48 | 48.18231 | 16.55162 | 1904 ft | 137 kts | 168° |
| 2026-05-06 19:49 | 48.17324 | 16.55547 | 1733 ft | 133 kts | 167° |
| 2026-05-06 19:49 | 48.16458 | 16.55917 | 1544 ft | 126 kts | 167° |
| 2026-05-06 19:49 | 48.15643 | 16.56262 | 1390 ft | 124 kts | 167° |
| 2026-05-06 19:49 | 48.14791 | 16.56624 | 1245 ft | 127 kts | 166° |
| 2026-05-06 19:50 | 48.13957 | 16.56972 | 1088 ft | 120 kts | 165° |
| 2026-05-06 19:50 | 48.13183 | 16.57302 | 886 ft | 114 kts | 164° |
| 2026-05-06 19:50 | 48.12437 | 16.57613 | 735 ft | 107 kts | 162° |
| 2026-05-06 19:50 | 48.11742 | 16.57916 | 631 ft | 98 kts | 163° |
| 2026-05-06 19:51 | 48.11200 | 16.58147 | 627 ft | 66 kts | 164° |
| 2026-05-06 19:51 | 48.10797 | 16.58318 | 627 ft | 55 kts | 164° |
| 2026-05-06 19:51 | 48.10459 | 16.58453 | 627 ft | 45 kts | 169° |
| 2026-05-06 19:51 | 48.10212 | 16.58438 | 623 ft | 26 kts | 197° |
| 2026-05-06 19:52 | 48.10114 | 16.58354 | 627 ft | 14 kts | 235° |
| 2026-05-06 19:52 | 48.10099 | 16.58229 | 626 ft | 13 kts | 292° |
| 2026-05-06 19:52 | 48.10176 | 16.58161 | 629 ft | 14 kts | 341° |
| 2026-05-06 19:52 | 48.10236 | 16.58136 | 614 ft | 0 kts | 345° |
| 2026-05-06 19:53 | 48.10237 | 16.58135 | 614 ft | 0 kts | 345° |
| 2026-05-06 19:54 | 48.10239 | 16.58134 | 614 ft | 0 kts | 345° |
| 2026-05-06 19:54 | 48.10258 | 16.58127 | 622 ft | 11 kts | 345° |
| 2026-05-06 19:55 | 48.10291 | 16.58114 | 626 ft | 5 kts | 345° |
| 2026-05-06 19:55 | 48.10349 | 16.58090 | 626 ft | 14 kts | 344° |
| 2026-05-06 19:55 | 48.10450 | 16.58046 | 628 ft | 16 kts | 344° |
| 2026-05-06 19:55 | 48.10582 | 16.57992 | 625 ft | 26 kts | 344° |
| 2026-05-06 19:56 | 48.10791 | 16.57902 | 626 ft | 32 kts | 344° |
| 2026-05-06 19:56 | 48.11006 | 16.57811 | 624 ft | 32 kts | 344° |
| 2026-05-06 19:56 | 48.11223 | 16.57720 | 626 ft | 32 kts | 344° |
| 2026-05-06 19:56 | 48.11439 | 16.57627 | 626 ft | 32 kts | 344° |
| 2026-05-06 19:57 | 48.11635 | 16.57545 | 626 ft | 27 kts | 344° |
| 2026-05-06 19:57 | 48.11817 | 16.57469 | 625 ft | 27 kts | 344° |
| 2026-05-06 19:57 | 48.11997 | 16.57392 | 628 ft | 26 kts | 344° |
| 2026-05-06 19:57 | 48.12147 | 16.57327 | 629 ft | 18 kts | 336° |
| 2026-05-06 19:58 | 48.12218 | 16.57179 | 621 ft | 17 kts | 296° |
| 2026-05-06 19:58 | 48.12255 | 16.57073 | 629 ft | 7 kts | 314° |
| 2026-05-06 19:58 | 48.12301 | 16.57079 | 620 ft | 7 kts | 33° |
| 2026-05-06 19:58 | 48.12348 | 16.57117 | 626 ft | 6 kts | 27° |
| 2026-05-06 19:59 | 48.12350 | 16.57119 | 627 ft | 0 kts | 25° |